createdAt,value
2022-11-29T00:01:49.554Z,2.53
2022-11-29T00:04:17.512Z,1.70
2022-11-29T00:07:04.149Z,1.70
2022-11-29T00:09:50.663Z,2.33
2022-11-29T00:12:18.775Z,1.98
2022-11-29T00:14:46.975Z,3.25
2022-11-29T00:17:15.192Z,2.13
2022-11-29T00:19:45.421Z,1.83
2022-11-29T00:22:13.480Z,2.60
2022-11-29T00:24:42.923Z,1.80
2022-11-29T00:27:11.222Z,2.05
2022-11-29T00:29:39.169Z,2.10
2022-11-29T00:32:07.219Z,1.98
2022-11-29T00:34:35.302Z,1.67
2022-11-29T00:37:03.359Z,1.85
2022-11-29T00:39:31.266Z,1.20
2022-11-29T00:41:59.393Z,1.00
2022-11-29T00:44:27.360Z,1.40
2022-11-29T00:46:55.349Z,1.10
2022-11-29T00:49:23.334Z,1.45
2022-11-29T00:51:51.439Z,1.52
2022-11-29T00:54:38.177Z,1.23
2022-11-29T00:57:06.180Z,1.25
2022-11-29T00:59:34.178Z,1.65
2022-11-29T01:02:02.311Z,1.20
2022-11-29T01:04:31.879Z,1.27
2022-11-29T01:06:59.883Z,1.20
2022-11-29T01:09:27.984Z,1.40
2022-11-29T01:14:41.657Z,1.73
2022-11-29T01:17:09.903Z,1.13
2022-11-29T01:19:38.917Z,1.38
2022-11-29T01:22:06.862Z,1.17
2022-11-29T01:24:34.914Z,1.45
2022-11-29T01:27:02.972Z,1.23
2022-11-29T01:29:31.208Z,0.85
2022-11-29T01:31:59.211Z,1.05
2022-11-29T01:34:27.182Z,1.13
2022-11-29T01:36:55.297Z,1.30
2022-11-29T01:39:23.246Z,1.45
2022-11-29T01:41:51.237Z,1.80
2022-11-29T01:47:23.665Z,0.88
2022-11-29T01:49:51.789Z,1.05
2022-11-29T01:55:10.380Z,1.00
2022-11-29T01:57:41.565Z,1.17
2022-11-29T02:00:17.578Z,0.80
2022-11-29T02:02:52.127Z,1.13
2022-11-29T02:05:21.078Z,1.30
2022-11-29T02:07:52.685Z,0.77
2022-11-29T02:10:33.170Z,0.75
2022-11-29T02:13:26.593Z,0.70
2022-11-29T02:16:05.888Z,1.02
2022-11-29T02:18:46.416Z,1.00
2022-11-29T02:21:38.856Z,1.10
2022-11-29T02:24:14.420Z,0.40
2022-11-29T02:27:26.959Z,0.65
2022-11-29T02:30:15.282Z,1.00
2022-11-29T02:32:43.188Z,0.85
2022-11-29T02:35:52.782Z,0.82
2022-11-29T02:38:45.406Z,0.60
2022-11-29T02:41:30.236Z,0.45
2022-11-29T02:44:32.061Z,0.80
2022-11-29T02:50:43.815Z,0.80
2022-11-29T02:53:25.019Z,0.60
2022-11-29T02:56:17.704Z,0.40
2022-11-29T02:58:59.203Z,0.70
2022-11-29T03:01:57.975Z,0.70
2022-11-29T03:04:48.062Z,0.60
2022-11-29T03:08:03.882Z,0.90
2022-11-29T03:11:03.259Z,0.40
2022-11-29T03:13:46.599Z,0.80
2022-11-29T03:16:28.363Z,0.73
2022-11-29T03:19:31.733Z,0.95
2022-11-29T03:22:13.162Z,1.52
2022-11-29T03:24:56.039Z,0.73
2022-11-29T03:27:42.487Z,1.17
2022-11-29T03:30:14.225Z,0.68
2022-11-29T03:33:25.183Z,0.57
2022-11-29T03:36:14.477Z,0.68
2022-11-29T03:38:47.974Z,0.93
2022-11-29T03:41:23.270Z,0.88
2022-11-29T03:44:01.372Z,0.95
2022-11-29T03:46:49.115Z,0.90
2022-11-29T03:49:25.740Z,0.80
2022-11-29T03:52:18.458Z,0.85
2022-11-29T03:55:13.910Z,0.90
2022-11-29T03:57:50.839Z,1.08
2022-11-29T04:03:10.895Z,0.65
2022-11-29T04:05:50.950Z,0.77
2022-11-29T04:08:43.655Z,0.52
2022-11-29T04:11:59.109Z,0.93
2022-11-29T04:14:54.927Z,0.75
2022-11-29T04:20:23.313Z,0.80
2022-11-29T04:23:22.267Z,0.70
2022-11-29T04:26:28.693Z,0.50
2022-11-29T04:29:22.071Z,0.68
2022-11-29T04:32:03.621Z,0.65
2022-11-29T04:34:40.537Z,0.63
2022-11-29T04:37:27.199Z,0.55
2022-11-29T04:40:00.757Z,0.47
2022-11-29T04:42:43.852Z,0.45
2022-11-29T04:45:30.068Z,0.57
2022-11-29T04:48:26.587Z,0.45
2022-11-29T04:51:31.945Z,0.47
2022-11-29T04:54:32.704Z,0.77
2022-11-29T04:57:13.364Z,0.70
2022-11-29T04:59:41.448Z,0.50
2022-11-29T05:02:31.010Z,0.35
2022-11-29T05:05:16.808Z,0.60
2022-11-29T05:08:02.908Z,0.50
2022-11-29T05:10:40.155Z,0.57
2022-11-29T05:13:43.515Z,0.52
2022-11-29T05:16:33.190Z,0.55
2022-11-29T05:19:35.418Z,0.88
2022-11-29T05:22:24.950Z,0.90
2022-11-29T05:25:30.204Z,0.50
2022-11-29T05:28:29.724Z,0.57
2022-11-29T05:31:22.198Z,0.85
2022-11-29T05:34:17.731Z,0.52
2022-11-29T05:37:00.793Z,0.40
2022-11-29T05:39:56.248Z,0.55
2022-11-29T05:42:56.062Z,0.90
2022-11-29T05:46:13.017Z,1.50
2022-11-29T05:48:59.958Z,1.15
2022-11-29T05:51:42.240Z,1.40
2022-11-29T05:54:37.643Z,0.70
2022-11-29T05:57:14.267Z,0.85
2022-11-29T05:59:43.973Z,0.40
2022-11-29T06:02:27.448Z,0.75
2022-11-29T06:05:14.780Z,1.02
2022-11-29T06:08:21.074Z,0.55
2022-11-29T06:11:13.855Z,0.60
2022-11-29T06:13:55.722Z,0.93
2022-11-29T06:16:57.192Z,0.98
2022-11-29T06:19:33.980Z,0.80
2022-11-29T06:22:01.910Z,0.95
2022-11-29T06:24:36.552Z,1.45
2022-11-29T06:27:23.218Z,1.10
2022-11-29T06:30:12.454Z,1.02
2022-11-29T06:32:56.874Z,1.40
2022-11-29T06:35:47.229Z,1.98
2022-11-29T06:38:30.008Z,2.25
2022-11-29T06:41:02.019Z,1.38
2022-11-29T06:43:31.670Z,1.30
2022-11-29T06:46:28.245Z,2.17
2022-11-29T06:49:19.349Z,2.00
2022-11-29T06:52:05.198Z,2.35
2022-11-29T06:55:03.006Z,2.90
2022-11-29T06:57:55.607Z,1.80
2022-11-29T07:00:30.304Z,1.90
2022-11-29T07:03:17.339Z,1.50
2022-11-29T07:06:24.331Z,2.78
2022-11-29T07:09:19.966Z,1.60
2022-11-29T07:11:48.360Z,1.10
2022-11-29T07:14:16.536Z,0.95
2022-11-29T07:17:15.281Z,0.40
2022-11-29T07:20:02.019Z,0.40
2022-11-29T07:22:42.393Z,1.77
2022-11-29T07:25:36.415Z,0.50
2022-11-29T07:28:17.923Z,1.00
2022-11-29T07:30:53.729Z,0.80
2022-11-29T07:33:31.218Z,1.05
2022-11-29T07:36:25.609Z,1.40
2022-11-29T07:39:14.741Z,1.42
2022-11-29T07:42:26.365Z,1.10
2022-11-29T07:45:18.600Z,1.25
2022-11-29T07:47:46.765Z,1.00
2022-11-29T07:50:15.093Z,0.90
2022-11-29T07:52:43.375Z,0.60
2022-11-29T07:55:19.034Z,0.60
2022-11-29T07:57:50.573Z,0.52
2022-11-29T08:00:20.132Z,0.70
2022-11-29T08:02:49.544Z,0.75
2022-11-29T08:05:18.169Z,1.27
2022-11-29T08:07:47.555Z,1.05
2022-11-29T08:10:16.999Z,0.85
2022-11-29T08:12:47.784Z,0.80
2022-11-29T08:15:17.201Z,0.60
2022-11-29T08:17:45.177Z,0.70
2022-11-29T08:20:14.944Z,0.80
2022-11-29T08:22:43.595Z,0.60
2022-11-29T08:25:12.194Z,0.63
2022-11-29T08:27:40.382Z,0.70
2022-11-29T08:30:08.958Z,0.30
2022-11-29T08:32:36.876Z,0.52
2022-11-29T08:35:05.102Z,0.30
2022-11-29T08:37:32.965Z,0.40
2022-11-29T08:42:46.181Z,0.40
2022-11-29T08:45:14.369Z,0.77
2022-11-29T08:47:43.218Z,0.50
2022-11-29T08:53:39.854Z,0.60
2022-11-29T08:57:10.165Z,1.05
2022-11-29T08:59:09.773Z,0.90
2022-11-29T09:01:37.764Z,0.90
2022-11-29T09:04:07.962Z,1.00
2022-11-29T09:06:43.306Z,1.55
2022-11-29T09:09:11.335Z,1.75
2022-11-29T09:11:57.893Z,1.05
2022-11-29T09:17:11.395Z,1.38
2022-11-29T09:19:39.459Z,1.40
2022-11-29T09:22:07.600Z,1.20
2022-11-29T09:24:35.600Z,1.42
2022-11-29T09:27:03.742Z,1.52
2022-11-29T09:29:31.877Z,1.90
2022-11-29T09:32:00.016Z,1.90
2022-11-29T09:34:28.047Z,1.90
2022-11-29T09:36:56.208Z,1.73
2022-11-29T09:39:24.205Z,1.90
2022-11-29T09:44:52.231Z,3.30
2022-11-29T09:48:02.678Z,4.03
2022-11-29T09:50:56.797Z,4.68
2022-11-29T09:53:38.243Z,3.10
2022-11-29T09:56:29.503Z,2.50
2022-11-29T09:59:18.759Z,2.13
2022-11-29T10:02:20.897Z,1.67
2022-11-29T10:05:17.092Z,2.92
2022-11-29T10:08:27.100Z,2.20
2022-11-29T10:11:12.452Z,1.75
2022-11-29T10:14:06.575Z,2.60
2022-11-29T10:16:47.295Z,1.90
2022-11-29T10:19:22.278Z,2.28
2022-11-29T10:22:06.703Z,1.95
2022-11-29T10:24:35.220Z,1.83
2022-11-29T10:27:09.466Z,2.90
2022-11-29T10:29:37.612Z,1.80
2022-11-29T10:32:14.294Z,1.90
2022-11-29T10:37:17.016Z,2.72
2022-11-29T10:40:04.780Z,2.30
2022-11-29T10:42:53.573Z,2.03
2022-11-29T10:45:50.690Z,1.83
2022-11-29T10:48:37.591Z,1.60
2022-11-29T10:51:16.399Z,2.28
2022-11-29T10:53:46.533Z,2.35
2022-11-29T10:56:22.558Z,1.58
2022-11-29T10:59:03.654Z,2.10
2022-11-29T11:01:38.982Z,2.38
2022-11-29T11:04:10.159Z,1.88
2022-11-29T11:06:49.161Z,1.40
2022-11-29T11:09:17.098Z,1.63
2022-11-29T11:15:36.616Z,1.85
2022-11-29T11:18:06.902Z,1.50
2022-11-29T11:20:41.609Z,1.95
2022-11-29T11:23:29.947Z,1.75
2022-11-29T11:26:09.298Z,2.17
2022-11-29T11:29:00.711Z,2.08
2022-11-29T11:31:32.744Z,1.77
2022-11-29T11:34:35.273Z,1.88
2022-11-29T11:37:36.137Z,1.88
2022-11-29T11:40:26.828Z,2.92
2022-11-29T11:42:58.003Z,2.80
2022-11-29T11:48:15.827Z,1.90
2022-11-29T11:50:57.829Z,1.90
2022-11-29T11:53:30.266Z,2.05
2022-11-29T11:56:02.354Z,1.95
2022-11-29T11:58:37.935Z,1.98
2022-11-29T12:01:15.055Z,2.20
2022-11-29T12:06:29.861Z,1.98
2022-11-29T12:09:29.038Z,1.42
2022-11-29T12:12:21.596Z,1.88
2022-11-29T12:15:03.417Z,1.98
2022-11-29T12:17:34.787Z,2.22
2022-11-29T12:20:20.793Z,1.45
2022-11-29T12:23:11.747Z,2.03
2022-11-29T12:26:19.266Z,1.77
2022-11-29T12:29:00.814Z,1.98
2022-11-29T12:31:40.861Z,1.50
2022-11-29T12:34:33.028Z,1.52
2022-11-29T12:40:28.260Z,1.83
2022-11-29T12:43:14.311Z,1.55
2022-11-29T12:45:54.376Z,1.70
2022-11-29T12:48:40.867Z,1.60
2022-11-29T12:51:27.660Z,1.85
2022-11-29T12:54:33.174Z,2.05
2022-11-29T12:57:16.385Z,1.63
2022-11-29T12:59:50.238Z,1.73
2022-11-29T13:02:33.871Z,1.70
2022-11-29T13:05:43.686Z,1.48
2022-11-29T13:08:45.593Z,1.58
2022-11-29T13:11:22.742Z,2.22
2022-11-29T13:17:05.341Z,2.22
2022-11-29T13:19:53.789Z,1.77
2022-11-29T13:22:27.717Z,1.98
2022-11-29T13:25:03.490Z,2.70
2022-11-29T13:27:42.551Z,1.90
2022-11-29T13:30:16.019Z,2.13
2022-11-29T13:32:48.517Z,1.83
2022-11-29T13:35:48.832Z,1.83
2022-11-29T13:38:23.133Z,1.75
2022-11-29T13:41:12.130Z,1.45
2022-11-29T13:43:53.590Z,2.55
2022-11-29T13:47:01.335Z,1.70
2022-11-29T13:49:59.255Z,1.52
2022-11-29T13:52:36.085Z,1.40
2022-11-29T13:55:13.014Z,1.83
2022-11-29T13:58:18.444Z,2.00
2022-11-29T14:00:46.823Z,1.52
2022-11-29T14:03:23.479Z,1.60
2022-11-29T14:06:13.544Z,1.67
2022-11-29T14:09:17.871Z,1.40
2022-11-29T14:12:06.088Z,1.83
2022-11-29T14:15:00.803Z,2.20
2022-11-29T14:17:39.675Z,1.70
2022-11-29T14:20:22.980Z,1.50
2022-11-29T14:25:51.539Z,1.92
2022-11-29T14:28:23.048Z,1.75
2022-11-29T14:31:03.721Z,1.95
2022-11-29T14:33:34.578Z,1.90
2022-11-29T14:36:24.495Z,1.58
2022-11-29T14:39:01.672Z,1.77
2022-11-29T14:41:38.612Z,1.90
2022-11-29T14:44:17.397Z,1.75
2022-11-29T14:47:14.214Z,1.33
2022-11-29T14:49:44.753Z,1.90
2022-11-29T14:52:18.072Z,1.70
2022-11-29T14:55:28.282Z,1.58
2022-11-29T14:58:06.342Z,1.63
2022-11-29T15:00:56.243Z,1.50
2022-11-29T15:03:39.054Z,1.40
2022-11-29T15:06:38.378Z,2.30
2022-11-29T15:09:20.988Z,1.63
2022-11-29T15:11:59.966Z,1.35
2022-11-29T15:14:46.840Z,1.60
2022-11-29T15:17:30.440Z,2.58
2022-11-29T15:20:04.206Z,2.53
2022-11-29T15:23:04.629Z,1.55
2022-11-29T15:25:33.312Z,1.70
2022-11-29T15:28:22.733Z,1.70
2022-11-29T15:31:12.961Z,1.20
2022-11-29T15:33:42.980Z,2.00
2022-11-29T15:36:18.988Z,1.63
2022-11-29T15:38:55.659Z,1.10
2022-11-29T15:41:28.838Z,1.40
2022-11-29T15:44:02.553Z,1.88
2022-11-29T15:46:33.090Z,1.55
2022-11-29T15:49:39.859Z,1.40
2022-11-29T15:52:15.513Z,1.25
2022-11-29T15:55:11.338Z,1.92
2022-11-29T15:57:42.529Z,1.35
2022-11-29T16:00:23.453Z,1.00
2022-11-29T16:02:56.677Z,1.60
2022-11-29T16:05:29.590Z,1.13
2022-11-29T16:08:16.174Z,1.23
2022-11-29T16:10:47.781Z,1.55
2022-11-29T16:13:38.565Z,1.52
2022-11-29T16:16:12.336Z,1.35
2022-11-29T16:18:42.410Z,1.40
2022-11-29T16:21:28.588Z,1.80
2022-11-29T16:23:57.582Z,3.13
2022-11-29T16:26:39.296Z,1.83
2022-11-29T16:29:21.602Z,1.85
2022-11-29T16:31:49.720Z,2.00
2022-11-29T16:34:33.394Z,1.80
2022-11-29T16:37:06.891Z,1.70
2022-11-29T16:39:37.998Z,1.20
2022-11-29T16:42:15.031Z,2.30
2022-11-29T16:44:47.061Z,1.75
2022-11-29T16:47:22.900Z,2.00
2022-11-29T16:50:03.181Z,1.60
2022-11-29T16:52:33.259Z,1.35
2022-11-29T16:55:01.359Z,1.58
2022-11-29T16:57:30.505Z,1.63
2022-11-29T16:59:58.669Z,1.13
2022-11-29T17:02:29.199Z,1.23
2022-11-29T17:04:58.406Z,1.38
2022-11-29T17:07:30.058Z,1.40
2022-11-29T17:09:59.238Z,0.90
2022-11-29T17:12:27.354Z,1.27
2022-11-29T17:14:55.454Z,1.35
2022-11-29T17:17:23.501Z,1.27
2022-11-29T17:19:51.493Z,1.20
2022-11-29T17:22:19.620Z,1.25
2022-11-29T17:24:48.511Z,1.70
2022-11-29T17:27:17.021Z,1.20
2022-11-29T17:29:44.918Z,1.55
2022-11-29T17:32:13.031Z,1.33
2022-11-29T17:34:41.025Z,1.55
2022-11-29T17:37:09.101Z,1.65
2022-11-29T17:39:37.108Z,2.17
2022-11-29T17:42:05.184Z,1.60
2022-11-29T17:44:34.639Z,1.20
2022-11-29T17:47:02.667Z,1.40
2022-11-29T17:49:30.786Z,1.30
2022-11-29T17:52:17.603Z,1.90
2022-11-29T17:54:45.611Z,1.27
2022-11-29T17:57:13.586Z,1.58
2022-11-29T17:59:41.529Z,1.52
2022-11-29T18:02:12.526Z,1.65
2022-11-29T18:04:42.959Z,1.45
2022-11-29T18:07:11.079Z,1.10
2022-11-29T18:09:39.091Z,1.50
2022-11-29T18:12:07.203Z,1.90
2022-11-29T18:14:36.531Z,1.90
2022-11-29T18:17:23.513Z,1.30
2022-11-29T18:19:51.490Z,1.65
2022-11-29T18:22:19.478Z,1.40
2022-11-29T18:24:47.557Z,2.22
2022-11-29T18:27:15.573Z,1.30
2022-11-29T18:29:43.654Z,1.40
2022-11-29T18:32:11.672Z,1.38
2022-11-29T18:34:39.706Z,1.02
2022-11-29T18:37:12.342Z,2.15
2022-11-29T18:39:43.458Z,1.60
2022-11-29T18:42:12.917Z,1.48
2022-11-29T18:44:40.993Z,1.70
2022-11-29T18:47:09.074Z,2.08
2022-11-29T18:49:37.149Z,1.55
2022-11-29T18:52:05.353Z,1.20
2022-11-29T18:54:33.349Z,2.00
2022-11-29T18:59:46.769Z,1.27
2022-11-29T19:02:16.843Z,1.75
2022-11-29T19:07:48.488Z,1.50
2022-11-29T19:10:16.629Z,2.05
2022-11-29T19:12:44.664Z,1.23
2022-11-29T19:15:12.787Z,1.70
2022-11-29T19:17:43.281Z,1.42
2022-11-29T19:20:12.355Z,1.10
2022-11-29T19:22:40.793Z,2.97
2022-11-29T19:25:09.393Z,2.55
2022-11-29T19:27:38.144Z,1.70
2022-11-29T19:30:06.936Z,1.80
2022-11-29T19:33:12.550Z,1.85
2022-11-29T19:35:40.633Z,1.67
2022-11-29T19:38:08.703Z,1.50
2022-11-29T19:40:39.900Z,1.88
2022-11-29T19:43:07.923Z,2.17
2022-11-29T19:45:39.535Z,1.88
2022-11-29T19:50:35.312Z,1.35
2022-11-29T19:53:03.661Z,1.17
2022-11-29T19:55:31.776Z,1.88
2022-11-29T19:58:18.655Z,1.70
2022-11-29T20:00:47.182Z,1.88
2022-11-29T20:03:15.338Z,2.00
2022-11-29T20:05:43.452Z,1.60
2022-11-29T20:08:11.461Z,1.58
2022-11-29T20:10:39.404Z,2.38
2022-11-29T20:13:08.097Z,1.20
2022-11-29T20:15:54.664Z,1.48
2022-11-29T20:18:22.697Z,1.40
2022-11-29T20:20:50.613Z,1.20
2022-11-29T20:23:18.558Z,1.83
2022-11-29T20:25:49.482Z,2.40
2022-11-29T20:28:17.433Z,1.13
2022-11-29T20:30:46.009Z,1.70
2022-11-29T20:33:32.723Z,2.58
2022-11-29T20:36:06.819Z,1.50
2022-11-29T20:38:57.605Z,1.85
2022-11-29T20:41:38.867Z,2.65
2022-11-29T20:44:07.022Z,2.65
2022-11-29T20:46:35.168Z,2.00
2022-11-29T20:49:06.669Z,2.45
2022-11-29T20:51:55.904Z,2.53
2022-11-29T20:54:23.946Z,3.17
2022-11-29T20:56:51.961Z,2.78
2022-11-29T20:59:19.893Z,2.22
2022-11-29T21:01:47.962Z,2.22
2022-11-29T21:04:21.631Z,1.60
2022-11-29T21:06:51.229Z,1.00
2022-11-29T21:09:19.295Z,0.77
2022-11-29T21:11:47.640Z,0.80
2022-11-29T21:14:15.974Z,1.48
2022-11-29T21:16:44.398Z,1.23
2022-11-29T21:19:24.297Z,1.00
2022-11-29T21:21:58.228Z,1.10
2022-11-29T21:24:32.142Z,0.98
2022-11-29T21:27:00.640Z,1.13
2022-11-29T21:29:28.817Z,1.00
2022-11-29T21:31:57.081Z,1.38
2022-11-29T21:34:25.113Z,1.42
2022-11-29T21:36:57.286Z,1.48
2022-11-29T21:39:31.711Z,1.45
2022-11-29T21:41:59.836Z,1.02
2022-11-29T21:44:27.899Z,1.75
2022-11-29T21:46:56.065Z,0.95
2022-11-29T21:49:24.070Z,1.10
2022-11-29T21:51:52.157Z,1.27
2022-11-29T21:54:20.105Z,1.25
2022-11-29T21:56:48.101Z,1.17
2022-11-29T21:59:16.042Z,0.95
2022-11-29T22:01:44.153Z,0.93
2022-11-29T22:04:12.429Z,1.25
2022-11-29T22:06:40.565Z,1.65
2022-11-29T22:09:08.480Z,0.93
2022-11-29T22:11:36.633Z,0.80
2022-11-29T22:14:20.082Z,0.77
2022-11-29T22:16:59.358Z,1.05
2022-11-29T22:19:36.475Z,1.50
2022-11-29T22:22:06.567Z,1.13
2022-11-29T22:24:36.908Z,0.80
2022-11-29T22:27:04.956Z,0.98
2022-11-29T22:29:33.033Z,0.80
2022-11-29T22:32:01.559Z,1.08
2022-11-29T22:37:15.189Z,0.70
2022-11-29T22:39:43.329Z,1.20
2022-11-29T22:42:11.710Z,1.00
2022-11-29T22:44:39.825Z,0.98
2022-11-29T22:47:08.057Z,0.80
2022-11-29T22:49:54.422Z,0.65
2022-11-29T22:52:22.583Z,0.70
2022-11-29T22:54:50.843Z,0.90
2022-11-29T22:57:37.447Z,1.45
2022-11-29T23:00:06.288Z,0.73
2022-11-29T23:02:34.541Z,1.33
2022-11-29T23:05:03.065Z,1.17
2022-11-29T23:07:31.364Z,1.65
2022-11-29T23:09:59.729Z,1.10
2022-11-29T23:12:27.730Z,0.85
2022-11-29T23:17:41.233Z,1.17
2022-11-29T23:20:10.233Z,1.20
2022-11-29T23:22:39.594Z,1.33
2022-11-29T23:25:08.067Z,1.00
2022-11-29T23:27:36.266Z,0.88
2022-11-29T23:30:05.119Z,1.00
2022-11-29T23:32:51.787Z,0.95
2022-11-29T23:35:19.973Z,0.95
2022-11-29T23:37:48.117Z,1.25
2022-11-29T23:40:16.290Z,1.30
2022-11-29T23:42:47.216Z,1.00
2022-11-29T23:45:36.744Z,0.93
2022-11-29T23:48:05.021Z,0.80
2022-11-29T23:50:33.424Z,0.88
2022-11-29T23:53:40.176Z,2.05
2022-11-29T23:56:15.142Z,0.93
2022-11-29T23:58:44.425Z,0.70
